Time;durP1;ratioP1;P1;durP2;ratioP2;P2;SDS_P1;SDS_P2;PMS_P1;PMS_P2;Temp;Humidity;BMP_temperature;BMP_pressure;BME280_temperature;BME280_humidity;BME280_pressure;Samples;Min_cycle;Max_cycle;Signal;HPM_P1;HPM_P2
2021/05/07 00:00:03;;;;;;;10.23;4.80;;;;;;;;;;5032334;28;20109;-69
2021/05/07 00:02:29;;;;;;;13.57;5.80;;;;;;;;;;5032641;28;20049;-69
2021/05/07 00:04:55;;;;;;;13.50;5.32;;;;;;;;;;5031881;28;20029;-69
2021/05/07 00:07:22;;;;;;;9.65;4.07;;;;;;;;;;5032741;28;20029;-69
2021/05/07 00:09:48;;;;;;;9.13;3.22;;;;;;;;;;5031970;28;20040;-69
2021/05/07 00:12:15;;;;;;;7.57;4.05;;;;;;;;;;5034091;28;20021;-69
2021/05/07 00:14:41;;;;;;;3.78;2.50;;;;;;;;;;5030008;28;20459;-69
2021/05/07 00:17:12;;;;;;;6.30;2.50;;;;;;;;;;5026536;28;20029;-72
2021/05/07 00:19:38;;;;;;;6.47;2.60;;;;;;;;;;5031178;28;20052;-69
2021/05/07 00:22:04;;;;;;;4.30;2.30;;;;;;;;;;5023018;28;20083;-69
2021/05/07 00:24:30;;;;;;;6.15;2.75;;;;;;;;;;5031903;28;20026;-69
2021/05/07 00:26:56;;;;;;;4.15;2.40;;;;;;;;;;5029516;28;20095;-69
2021/05/07 00:29:22;;;;;;;6.38;2.63;;;;;;;;;;5031688;28;20075;-69
2021/05/07 00:31:48;;;;;;;8.18;3.40;;;;;;;;;;5031961;28;20046;-69
2021/05/07 00:34:14;;;;;;;5.47;3.42;;;;;;;;;;5031812;28;20040;-69
2021/05/07 00:36:40;;;;;;;5.28;3.00;;;;;;;;;;5032636;28;20025;-69
2021/05/07 00:39:07;;;;;;;6.22;2.78;;;;;;;;;;5025851;28;20029;-68
2021/05/07 00:41:33;;;;;;;4.45;2.67;;;;;;;;;;5031523;28;20033;-71
2021/05/07 00:43:59;;;;;;;5.53;2.58;;;;;;;;;;5018554;28;20049;-70
2021/05/07 00:46:25;;;;;;;3.80;2.53;;;;;;;;;;5037883;28;20110;-70
2021/05/07 00:48:51;;;;;;;8.50;2.67;;;;;;;;;;5030900;28;20514;-69
2021/05/07 00:51:17;;;;;;;5.95;2.83;;;;;;;;;;5035328;28;20029;-69
2021/05/07 00:53:43;;;;;;;5.60;2.63;;;;;;;;;;5031568;28;20422;-69
2021/05/07 00:56:10;;;;;;;5.10;2.63;;;;;;;;;;5030855;28;20108;-69
2021/05/07 00:58:36;;;;;;;4.40;2.80;;;;;;;;;;5031160;28;20218;-69
2021/05/07 01:01:02;;;;;;;5.90;3.03;;;;;;;;;;5033610;28;20029;-69
2021/05/07 01:03:28;;;;;;;5.60;3.08;;;;;;;;;;5033713;28;20041;-70
2021/05/07 01:05:54;;;;;;;6.13;2.95;;;;;;;;;;5034882;28;20067;-70
2021/05/07 01:08:21;;;;;;;6.30;3.03;;;;;;;;;;5034435;28;20043;-69
2021/05/07 01:10:49;;;;;;;7.13;3.60;;;;;;;;;;4997233;28;20104;-69
2021/05/07 01:13:15;;;;;;;6.90;2.80;;;;;;;;;;5034866;28;20491;-70
2021/05/07 01:15:42;;;;;;;10.65;3.47;;;;;;;;;;5034377;28;20631;-70
2021/05/07 01:18:08;;;;;;;9.27;3.38;;;;;;;;;;5034791;28;20021;-69
2021/05/07 01:20:34;;;;;;;5.65;2.72;;;;;;;;;;5034767;28;20035;-70
2021/05/07 01:23:02;;;;;;;5.65;2.70;;;;;;;;;;5020132;28;20494;-69
2021/05/07 01:25:32;;;;;;;4.78;2.70;;;;;;;;;;5034417;28;20487;-70
2021/05/07 01:28:02;;;;;;;11.52;2.70;;;;;;;;;;5034524;28;20402;-70
2021/05/07 01:30:29;;;;;;;4.70;2.80;;;;;;;;;;5035112;28;20025;-70
2021/05/07 01:32:56;;;;;;;4.97;2.65;;;;;;;;;;5033829;28;20049;-69
2021/05/07 01:35:28;;;;;;;6.82;2.70;;;;;;;;;;5034876;28;20025;-70
2021/05/07 01:37:59;;;;;;;4.28;2.42;;;;;;;;;;5035396;28;20017;-68
2021/05/07 01:40:29;;;;;;;4.15;2.47;;;;;;;;;;5029932;28;20031;-69
2021/05/07 01:42:55;;;;;;;4.38;2.70;;;;;;;;;;5034788;28;20033;-70
2021/05/07 01:45:28;;;;;;;5.57;2.83;;;;;;;;;;5035149;28;20030;-70
2021/05/07 01:47:55;;;;;;;6.50;3.00;;;;;;;;;;5017692;28;20057;-69
2021/05/07 01:50:22;;;;;;;6.28;2.92;;;;;;;;;;5035300;28;20021;-69
2021/05/07 01:52:48;;;;;;;8.00;2.65;;;;;;;;;;5035703;28;20022;-69
2021/05/07 01:55:17;;;;;;;6.57;2.70;;;;;;;;;;5034049;28;20021;-69
2021/05/07 01:57:43;;;;;;;5.13;2.60;;;;;;;;;;5034295;28;20034;-69
2021/05/07 02:00:10;;;;;;;5.60;2.80;;;;;;;;;;5033827;28;20109;-69
2021/05/07 02:02:36;;;;;;;5.82;2.70;;;;;;;;;;5033626;28;20061;-69
2021/05/07 02:05:02;;;;;;;4.78;2.50;;;;;;;;;;5020712;28;20383;-70
2021/05/07 02:07:29;;;;;;;8.35;2.97;;;;;;;;;;5034286;28;20029;-69
2021/05/07 02:09:55;;;;;;;4.97;2.50;;;;;;;;;;5034456;28;20160;-69
2021/05/07 02:12:21;;;;;;;6.13;2.60;;;;;;;;;;5032625;28;20041;-69
2021/05/07 02:14:47;;;;;;;8.15;2.58;;;;;;;;;;5030120;28;20024;-69
2021/05/07 02:17:13;;;;;;;6.20;2.90;;;;;;;;;;5033362;28;20028;-69
2021/05/07 02:19:39;;;;;;;4.80;2.30;;;;;;;;;;5033090;28;20031;-69
2021/05/07 02:22:05;;;;;;;4.57;2.58;;;;;;;;;;5033425;28;20128;-69
2021/05/07 02:24:31;;;;;;;4.93;2.33;;;;;;;;;;5033308;28;20029;-69
2021/05/07 02:26:57;;;;;;;5.63;2.63;;;;;;;;;;5033985;28;20028;-69
2021/05/07 02:29:23;;;;;;;4.53;2.50;;;;;;;;;;5033964;28;20040;-70
2021/05/07 02:31:49;;;;;;;4.07;2.40;;;;;;;;;;5034127;28;20497;-70
2021/05/07 02:34:16;;;;;;;6.13;2.53;;;;;;;;;;5020340;28;20516;-70
2021/05/07 02:36:42;;;;;;;4.93;2.55;;;;;;;;;;5034295;28;20038;-70
2021/05/07 02:39:09;;;;;;;5.03;2.60;;;;;;;;;;5037174;28;20025;-70
2021/05/07 02:41:38;;;;;;;5.53;2.75;;;;;;;;;;5034020;28;20021;-69
2021/05/07 02:44:05;;;;;;;7.13;3.13;;;;;;;;;;5032914;28;20537;-69
2021/05/07 02:46:33;;;;;;;4.65;2.50;;;;;;;;;;5033738;28;20148;-70
2021/05/07 02:48:59;;;;;;;9.20;2.70;;;;;;;;;;5034417;28;20560;-69
2021/05/07 02:51:25;;;;;;;4.47;2.28;;;;;;;;;;5033485;28;20475;-69
2021/05/07 02:53:51;;;;;;;9.05;3.00;;;;;;;;;;5033940;28;20030;-71
2021/05/07 02:56:17;;;;;;;5.15;2.70;;;;;;;;;;5040626;28;20033;-70
2021/05/07 02:58:43;;;;;;;8.13;2.70;;;;;;;;;;5033680;28;20032;-70
2021/05/07 03:01:09;;;;;;;6.82;2.60;;;;;;;;;;5036477;28;20049;-70
2021/05/07 03:03:35;;;;;;;5.10;2.72;;;;;;;;;;5032839;28;20486;-69
2021/05/07 03:06:01;;;;;;;6.47;2.58;;;;;;;;;;5034809;28;20021;-70
2021/05/07 03:08:27;;;;;;;4.15;2.50;;;;;;;;;;5039937;28;20119;-70
2021/05/07 03:10:53;;;;;;;5.15;2.60;;;;;;;;;;5036022;28;20088;-70
2021/05/07 03:13:19;;;;;;;6.07;3.60;;;;;;;;;;5015215;28;20030;-70
2021/05/07 03:15:45;;;;;;;6.40;2.92;;;;;;;;;;5039877;28;20108;-70
2021/05/07 03:18:18;;;;;;;5.15;2.50;;;;;;;;;;5035114;28;20017;-70
2021/05/07 03:20:45;;;;;;;8.57;2.73;;;;;;;;;;5035224;28;20048;-72
2021/05/07 03:23:12;;;;;;;6.40;2.55;;;;;;;;;;5032808;28;20447;-70
2021/05/07 03:25:38;;;;;;;6.68;2.67;;;;;;;;;;5034185;28;20068;-70
2021/05/07 03:28:04;;;;;;;5.70;2.55;;;;;;;;;;5032741;28;20021;-70
2021/05/07 03:30:32;;;;;;;6.22;2.58;;;;;;;;;;5033129;28;20478;-70
2021/05/07 03:32:58;;;;;;;5.75;2.35;;;;;;;;;;5031092;28;20079;-69
2021/05/07 03:35:24;;;;;;;7.57;2.88;;;;;;;;;;5029759;28;20797;-69
2021/05/07 03:37:50;;;;;;;5.38;2.40;;;;;;;;;;5029640;28;20018;-70
2021/05/07 03:40:21;;;;;;;4.55;2.70;;;;;;;;;;5025698;28;20120;-69
2021/05/07 03:42:47;;;;;;;6.85;2.80;;;;;;;;;;5031248;28;20029;-68
2021/05/07 03:45:17;;;;;;;4.57;2.42;;;;;;;;;;5033282;28;20053;-69
2021/05/07 03:47:46;;;;;;;4.45;2.58;;;;;;;;;;5032083;28;20059;-68
2021/05/07 03:50:12;;;;;;;7.82;3.00;;;;;;;;;;5031340;28;20162;-69
2021/05/07 03:52:38;;;;;;;12.75;3.88;;;;;;;;;;5031695;28;20068;-69
2021/05/07 03:55:06;;;;;;;5.47;2.70;;;;;;;;;;5031572;28;20053;-68
2021/05/07 03:57:32;;;;;;;8.30;3.03;;;;;;;;;;5031813;28;20565;-69
2021/05/07 03:59:58;;;;;;;6.90;2.63;;;;;;;;;;5026060;28;20061;-69
2021/05/07 04:02:24;;;;;;;5.97;2.60;;;;;;;;;;5030905;28;20037;-70
2021/05/07 04:04:51;;;;;;;6.88;2.53;;;;;;;;;;5031592;28;20036;-69
2021/05/07 04:07:17;;;;;;;10.98;3.13;;;;;;;;;;5032944;28;20026;-69
2021/05/07 04:15:13;;;;;;;5.40;2.20;;;;;;;;;;4973429;28;20023;-69
2021/05/07 04:17:39;;;;;;;5.18;2.35;;;;;;;;;;4977499;28;20157;-68
2021/05/07 04:20:06;;;;;;;6.18;2.90;;;;;;;;;;4975650;28;20105;-68
2021/05/07 04:22:32;;;;;;;4.35;2.45;;;;;;;;;;4974572;28;20035;-73
2021/05/07 04:24:58;;;;;;;4.65;2.50;;;;;;;;;;4968736;28;20502;-69
2021/05/07 04:27:24;;;;;;;7.45;2.92;;;;;;;;;;4979022;28;20077;-69
2021/05/07 04:29:51;;;;;;;5.00;2.65;;;;;;;;;;4967317;28;20034;-71
2021/05/07 04:32:17;;;;;;;7.38;2.97;;;;;;;;;;4985111;28;20046;-73
2021/05/07 04:34:43;;;;;;;12.38;3.13;;;;;;;;;;4972680;28;20058;-72
2021/05/07 04:37:10;;;;;;;13.32;3.30;;;;;;;;;;4972496;28;20066;-70
2021/05/07 04:39:36;;;;;;;5.85;2.67;;;;;;;;;;4974355;28;20383;-71
2021/05/07 04:42:02;;;;;;;4.97;2.63;;;;;;;;;;4969943;28;20152;-70
2021/05/07 04:44:28;;;;;;;6.88;2.85;;;;;;;;;;4978238;28;20034;-70
2021/05/07 04:46:54;;;;;;;5.80;2.90;;;;;;;;;;5017962;28;20032;-70
2021/05/07 04:49:22;;;;;;;6.45;2.83;;;;;;;;;;5035280;28;20029;-70
2021/05/07 04:51:51;;;;;;;6.07;2.50;;;;;;;;;;5040872;28;20072;-72
2021/05/07 04:54:17;;;;;;;5.78;2.50;;;;;;;;;;5026539;28;20029;-70
2021/05/07 04:56:44;;;;;;;10.45;2.78;;;;;;;;;;5030891;28;20040;-76
2021/05/07 04:59:10;;;;;;;9.80;2.80;;;;;;;;;;5027536;28;20108;-71
2021/05/07 05:01:36;;;;;;;5.28;2.63;;;;;;;;;;5025951;28;20032;-73
2021/05/07 05:04:02;;;;;;;6.45;2.40;;;;;;;;;;5023197;28;20077;-71
2021/05/07 05:06:30;;;;;;;8.27;2.90;;;;;;;;;;5026311;28;20021;-72
2021/05/07 05:08:56;;;;;;;10.50;2.70;;;;;;;;;;5028936;28;20242;-70
2021/05/07 05:11:22;;;;;;;6.05;2.58;;;;;;;;;;5021320;28;20121;-72
2021/05/07 05:13:54;;;;;;;4.18;2.83;;;;;;;;;;5032061;28;20033;-77
2021/05/07 05:16:21;;;;;;;5.32;2.70;;;;;;;;;;5043600;28;20038;-72
2021/05/07 05:18:47;;;;;;;6.15;2.72;;;;;;;;;;5025815;28;20129;-71
2021/05/07 05:21:13;;;;;;;9.18;3.25;;;;;;;;;;5025704;28;20022;-71
2021/05/07 05:23:41;;;;;;;5.68;2.30;;;;;;;;;;5030188;28;20462;-71
2021/05/07 05:26:07;;;;;;;46.25;8.05;;;;;;;;;;5026296;28;20017;-69
2021/05/07 05:28:35;;;;;;;9.60;2.80;;;;;;;;;;5030660;28;20070;-72
2021/05/07 05:31:02;;;;;;;9.52;3.25;;;;;;;;;;5019943;28;20553;-72
2021/05/07 05:33:28;;;;;;;4.90;2.50;;;;;;;;;;5029036;28;20533;-72
2021/05/07 05:35:54;;;;;;;6.65;2.75;;;;;;;;;;5009283;28;20032;-73
2021/05/07 05:38:20;;;;;;;5.03;2.30;;;;;;;;;;5023462;28;20798;-72
2021/05/07 05:40:47;;;;;;;5.57;2.72;;;;;;;;;;5026453;28;20029;-73
2021/05/07 05:43:14;;;;;;;5.10;2.90;;;;;;;;;;5029199;28;20037;-73
2021/05/07 05:45:40;;;;;;;6.55;2.72;;;;;;;;;;5023862;28;20018;-71
2021/05/07 05:48:14;;;;;;;2.95;2.28;;;;;;;;;;5021300;28;20108;-71
2021/05/07 05:50:41;;;;;;;7.95;2.53;;;;;;;;;;5032239;28;20096;-72
2021/05/07 05:53:07;;;;;;;6.45;2.33;;;;;;;;;;5031407;28;20029;-72
2021/05/07 05:55:34;;;;;;;4.00;2.15;;;;;;;;;;5029057;28;20029;-72
2021/05/07 05:58:00;;;;;;;6.10;2.50;;;;;;;;;;5030030;28;20055;-71
2021/05/07 06:00:26;;;;;;;4.57;2.33;;;;;;;;;;5015941;28;20641;-72
2021/05/07 06:02:52;;;;;;;5.05;2.50;;;;;;;;;;5028967;28;20057;-73
2021/05/07 06:05:20;;;;;;;5.30;2.38;;;;;;;;;;5023416;28;20030;-74
2021/05/07 06:07:46;;;;;;;11.95;5.15;;;;;;;;;;5030867;28;20013;-72
2021/05/07 06:10:13;;;;;;;8.07;5.40;;;;;;;;;;5027561;28;20415;-73
2021/05/07 06:12:40;;;;;;;4.07;2.85;;;;;;;;;;5032272;28;20026;-73
2021/05/07 06:15:07;;;;;;;5.07;2.60;;;;;;;;;;5030723;28;20021;-74
2021/05/07 06:17:33;;;;;;;5.75;2.97;;;;;;;;;;5031375;28;20553;-75
2021/05/07 06:20:02;;;;;;;7.07;3.42;;;;;;;;;;5026047;28;20041;-76
2021/05/07 06:22:28;;;;;;;3.95;2.63;;;;;;;;;;5024876;28;20518;-75
2021/05/07 06:24:54;;;;;;;6.18;3.15;;;;;;;;;;5029334;28;20029;-74
2021/05/07 06:27:20;;;;;;;8.65;3.38;;;;;;;;;;5029854;28;20034;-73
2021/05/07 06:29:46;;;;;;;6.00;3.50;;;;;;;;;;5025210;28;20033;-73
2021/05/07 06:32:12;;;;;;;8.40;5.13;;;;;;;;;;5029087;28;20095;-73
2021/05/07 06:34:38;;;;;;;18.52;6.47;;;;;;;;;;5033702;28;20059;-73
2021/05/07 06:37:04;;;;;;;9.00;4.72;;;;;;;;;;5033764;28;20481;-87
2021/05/07 06:39:30;;;;;;;6.25;3.83;;;;;;;;;;5028677;28;20490;-73
2021/05/07 06:41:57;;;;;;;8.15;4.40;;;;;;;;;;5029724;28;20025;-71
2021/05/07 06:44:25;;;;;;;12.80;4.13;;;;;;;;;;5024435;28;20032;-75
2021/05/07 06:46:52;;;;;;;12.77;5.53;;;;;;;;;;5028079;28;20041;-74
2021/05/07 06:49:18;;;;;;;15.95;8.35;;;;;;;;;;5033491;28;20022;-75
2021/05/07 06:51:44;;;;;;;12.05;4.90;;;;;;;;;;5028420;28;20436;-74
2021/05/07 06:54:11;;;;;;;9.27;3.88;;;;;;;;;;5032050;28;20022;-73
2021/05/07 06:56:37;;;;;;;10.07;3.90;;;;;;;;;;5029431;28;20406;-74
2021/05/07 06:59:06;;;;;;;6.35;3.00;;;;;;;;;;5017837;28;20018;-73
2021/05/07 07:01:32;;;;;;;7.25;3.00;;;;;;;;;;5025308;28;20511;-73
2021/05/07 07:03:58;;;;;;;11.68;3.28;;;;;;;;;;5025793;28;20037;-76
2021/05/07 07:06:24;;;;;;;7.60;3.25;;;;;;;;;;5031633;28;20021;-76
2021/05/07 07:08:51;;;;;;;10.50;3.20;;;;;;;;;;5029905;28;20501;-75
2021/05/07 07:11:17;;;;;;;9.77;3.08;;;;;;;;;;5023661;28;20022;-75
2021/05/07 07:13:43;;;;;;;8.43;3.38;;;;;;;;;;5028184;28;20517;-73
2021/05/07 07:16:10;;;;;;;8.23;3.70;;;;;;;;;;5027983;28;20030;-76
2021/05/07 07:18:36;;;;;;;12.55;3.92;;;;;;;;;;5023784;28;20142;-75
2021/05/07 07:21:03;;;;;;;9.85;3.10;;;;;;;;;;5034391;28;20143;-77
2021/05/07 07:23:29;;;;;;;8.35;3.25;;;;;;;;;;5025600;28;20038;-77
2021/05/07 07:25:55;;;;;;;12.15;5.07;;;;;;;;;;5024858;28;20079;-76
2021/05/07 07:28:21;;;;;;;11.57;5.78;;;;;;;;;;5030192;28;20018;-72
2021/05/07 07:30:47;;;;;;;27.30;16.77;;;;;;;;;;5030379;28;20034;-75
2021/05/07 07:33:13;;;;;;;27.15;14.40;;;;;;;;;;5023251;28;20056;-84
2021/05/07 07:35:39;;;;;;;18.63;9.50;;;;;;;;;;5021922;28;20361;-73
2021/05/07 07:38:06;;;;;;;29.63;18.05;;;;;;;;;;5028902;28;20037;-73
2021/05/07 07:40:33;;;;;;;21.02;11.02;;;;;;;;;;5031586;28;20037;-73
2021/05/07 07:42:59;;;;;;;32.60;15.77;;;;;;;;;;5030216;28;20036;-73
2021/05/07 07:45:25;;;;;;;13.43;6.90;;;;;;;;;;5030565;28;20036;-73
2021/05/07 07:47:51;;;;;;;15.55;3.97;;;;;;;;;;5020772;28;20034;-73
2021/05/07 07:50:17;;;;;;;9.18;2.88;;;;;;;;;;5029730;28;20163;-72
2021/05/07 07:52:43;;;;;;;18.23;4.07;;;;;;;;;;5023453;28;20029;-72
2021/05/07 07:55:12;;;;;;;10.38;3.05;;;;;;;;;;5028405;28;20580;-75
2021/05/07 07:57:38;;;;;;;9.02;3.05;;;;;;;;;;5025781;28;20029;-76
2021/05/07 08:00:05;;;;;;;10.57;2.85;;;;;;;;;;5026233;28;20033;-75
2021/05/07 08:02:31;;;;;;;7.03;3.03;;;;;;;;;;5030269;28;20033;-74
2021/05/07 08:04:57;;;;;;;5.72;2.80;;;;;;;;;;5024825;28;20030;-79
2021/05/07 08:07:23;;;;;;;9.07;3.15;;;;;;;;;;5029999;28;20064;-77
2021/05/07 08:09:49;;;;;;;9.50;3.95;;;;;;;;;;5024243;28;20033;-76
2021/05/07 08:12:15;;;;;;;9.02;3.38;;;;;;;;;;5027649;28;20029;-76
2021/05/07 08:14:42;;;;;;;6.55;2.95;;;;;;;;;;5021371;28;20025;-75
2021/05/07 08:17:11;;;;;;;10.32;3.70;;;;;;;;;;5025168;28;20120;-77
2021/05/07 08:19:37;;;;;;;12.60;3.75;;;;;;;;;;5014286;28;20066;-76
2021/05/07 08:22:04;;;;;;;7.60;3.33;;;;;;;;;;5024337;28;20017;-76
2021/05/07 08:24:30;;;;;;;9.48;3.70;;;;;;;;;;5026708;28;20040;-78
2021/05/07 08:26:59;;;;;;;8.07;3.72;;;;;;;;;;5022823;28;20030;-76
2021/05/07 08:29:26;;;;;;;11.10;3.10;;;;;;;;;;5025342;28;20490;-76
2021/05/07 08:31:52;;;;;;;7.70;3.00;;;;;;;;;;5027980;28;20068;-77
2021/05/07 08:34:20;;;;;;;6.97;3.05;;;;;;;;;;5030742;28;20125;-75
2021/05/07 08:36:46;;;;;;;8.68;2.95;;;;;;;;;;5030970;28;20026;-74
2021/05/07 08:39:14;;;;;;;8.32;3.08;;;;;;;;;;5023237;28;20026;-74
2021/05/07 08:41:43;;;;;;;11.05;2.72;;;;;;;;;;5022099;28;20017;-76
2021/05/07 08:44:09;;;;;;;9.23;2.70;;;;;;;;;;5030297;28;20033;-75
2021/05/07 08:46:36;;;;;;;9.75;2.80;;;;;;;;;;5025641;28;20053;-75
2021/05/07 08:49:02;;;;;;;6.50;2.80;;;;;;;;;;5030409;28;20033;-77
2021/05/07 08:51:28;;;;;;;9.20;3.20;;;;;;;;;;5021246;28;20382;-73
2021/05/07 08:53:54;;;;;;;11.00;4.05;;;;;;;;;;5029013;28;20033;-73
2021/05/07 08:56:21;;;;;;;10.73;3.15;;;;;;;;;;5028404;28;20030;-75
2021/05/07 08:58:47;;;;;;;8.88;3.50;;;;;;;;;;5026808;28;20507;-75
2021/05/07 09:01:13;;;;;;;8.73;3.00;;;;;;;;;;5028567;28;20432;-74
2021/05/07 09:03:45;;;;;;;6.25;3.05;;;;;;;;;;5027472;28;20109;-76
2021/05/07 09:06:29;;;;;;;13.13;3.72;;;;;;;;;;5025561;28;20022;-72
2021/05/07 09:08:55;;;;;;;8.60;2.85;;;;;;;;;;5023857;28;20097;-76
2021/05/07 09:11:21;;;;;;;10.05;3.30;;;;;;;;;;5028033;28;20025;-73
2021/05/07 09:13:47;;;;;;;14.68;3.60;;;;;;;;;;5030127;28;20032;-73
2021/05/07 09:16:13;;;;;;;12.23;3.53;;;;;;;;;;5022095;28;20077;-72
2021/05/07 09:18:46;;;;;;;5.80;3.30;;;;;;;;;;5027595;28;20026;-74
2021/05/07 09:21:13;;;;;;;9.98;3.20;;;;;;;;;;5030389;28;20025;-76
2021/05/07 09:23:40;;;;;;;10.07;3.08;;;;;;;;;;5031471;28;20504;-76
2021/05/07 09:26:06;;;;;;;7.07;2.70;;;;;;;;;;5026970;28;20025;-74
2021/05/07 09:28:32;;;;;;;6.93;2.78;;;;;;;;;;5023586;28;20041;-75
2021/05/07 09:31:15;;;;;;;9.48;3.05;;;;;;;;;;5018271;28;20044;-76
2021/05/07 09:33:45;;;;;;;9.05;3.20;;;;;;;;;;5032733;28;20402;-74
2021/05/07 09:36:23;;;;;;;7.85;2.63;;;;;;;;;;5004955;28;20052;-73
2021/05/07 09:38:49;;;;;;;7.88;2.97;;;;;;;;;;5032441;28;20032;-76
2021/05/07 09:41:15;;;;;;;4.30;2.40;;;;;;;;;;5034670;28;20040;-71
2021/05/07 09:43:42;;;;;;;7.47;2.78;;;;;;;;;;5026571;28;20044;-76
2021/05/07 09:46:08;;;;;;;7.72;2.60;;;;;;;;;;5030703;28;20033;-79
2021/05/07 09:48:36;;;;;;;7.13;2.80;;;;;;;;;;5023832;28;20506;-75
2021/05/07 09:51:05;;;;;;;4.80;2.40;;;;;;;;;;5033707;28;20139;-75
2021/05/07 09:53:33;;;;;;;11.57;3.08;;;;;;;;;;5025257;28;20021;-76
2021/05/07 09:56:00;;;;;;;4.55;2.50;;;;;;;;;;5030500;28;20053;-75
2021/05/07 09:58:27;;;;;;;13.98;2.97;;;;;;;;;;5026269;28;20049;-76
2021/05/07 10:00:55;;;;;;;6.50;2.90;;;;;;;;;;5028123;28;20032;-76
2021/05/07 10:03:21;;;;;;;12.98;3.25;;;;;;;;;;5024364;28;20069;-75
2021/05/07 10:05:48;;;;;;;5.05;2.88;;;;;;;;;;5027223;28;20025;-75
2021/05/07 10:08:14;;;;;;;6.32;2.65;;;;;;;;;;5028280;28;20782;-74
2021/05/07 10:10:44;;;;;;;5.03;2.90;;;;;;;;;;5021384;28;20034;-75
2021/05/07 10:13:15;;;;;;;7.57;3.10;;;;;;;;;;5032311;28;20100;-75
2021/05/07 10:15:42;;;;;;;5.32;2.80;;;;;;;;;;5028576;28;20156;-74
2021/05/07 10:18:09;;;;;;;10.10;3.03;;;;;;;;;;5032418;28;20031;-76
2021/05/07 10:20:35;;;;;;;12.10;3.13;;;;;;;;;;5023657;28;20037;-75
2021/05/07 10:23:12;;;;;;;7.75;2.80;;;;;;;;;;5038727;28;20049;-73
2021/05/07 10:25:39;;;;;;;8.18;2.75;;;;;;;;;;5007613;28;20036;-73
2021/05/07 10:28:15;;;;;;;5.68;2.42;;;;;;;;;;5028935;28;20029;-73
2021/05/07 10:30:41;;;;;;;6.85;2.55;;;;;;;;;;5028919;28;20025;-74
2021/05/07 10:33:15;;;;;;;6.82;2.88;;;;;;;;;;5004197;28;20053;-77
2021/05/07 10:35:41;;;;;;;8.63;2.55;;;;;;;;;;5028515;28;20021;-73
2021/05/07 10:38:10;;;;;;;3.90;2.22;;;;;;;;;;5029544;28;20387;-78
2021/05/07 10:40:37;;;;;;;7.30;2.72;;;;;;;;;;5020068;28;20510;-82
2021/05/07 10:43:04;;;;;;;9.27;2.60;;;;;;;;;;5038613;28;20043;-82
2021/05/07 10:45:40;;;;;;;5.95;2.40;;;;;;;;;;5033317;28;20013;-77
2021/05/07 10:48:13;;;;;;;7.40;2.90;;;;;;;;;;5038358;28;20042;-77
2021/05/07 10:50:42;;;;;;;9.80;3.70;;;;;;;;;;5029865;28;20021;-74
2021/05/07 10:53:08;;;;;;;8.00;3.50;;;;;;;;;;5027106;28;20025;-76
2021/05/07 10:55:34;;;;;;;8.35;3.40;;;;;;;;;;5020360;28;20100;-75
2021/05/07 10:58:05;;;;;;;8.43;3.28;;;;;;;;;;5023959;28;20051;-78
2021/05/07 11:00:41;;;;;;;11.68;4.22;;;;;;;;;;5024715;28;20104;-75
2021/05/07 11:03:18;;;;;;;16.08;7.63;;;;;;;;;;5025311;28;20041;-78
2021/05/07 11:05:48;;;;;;;13.07;5.90;;;;;;;;;;5025836;28;20452;-81
2021/05/07 11:08:14;;;;;;;9.02;4.22;;;;;;;;;;5021062;28;20030;-79
2021/05/07 11:10:41;;;;;;;11.32;4.90;;;;;;;;;;5027309;28;20064;-77
2021/05/07 11:13:07;;;;;;;9.07;3.50;;;;;;;;;;5024224;28;20025;-77
2021/05/07 11:15:34;;;;;;;12.95;3.00;;;;;;;;;;5026066;28;20033;-72
2021/05/07 11:18:01;;;;;;;5.93;2.85;;;;;;;;;;5024801;28;20100;-71
2021/05/07 11:20:35;;;;;;;9.20;3.05;;;;;;;;;;5031190;28;20116;-72
2021/05/07 11:23:02;;;;;;;24.40;3.90;;;;;;;;;;5024568;28;20558;-72
2021/05/07 11:25:30;;;;;;;8.55;4.20;;;;;;;;;;5022980;28;20116;-72
2021/05/07 11:27:58;;;;;;;17.60;5.22;;;;;;;;;;5025955;28;20025;-71
2021/05/07 11:30:25;;;;;;;10.48;5.03;;;;;;;;;;5024741;28;20072;-72
2021/05/07 11:32:51;;;;;;;18.75;5.78;;;;;;;;;;5025658;28;20562;-71
2021/05/07 11:35:18;;;;;;;14.00;5.68;;;;;;;;;;5027801;28;20033;-71
2021/05/07 11:37:45;;;;;;;13.20;5.65;;;;;;;;;;5026854;28;20489;-72
2021/05/07 11:40:14;;;;;;;16.75;6.13;;;;;;;;;;5025273;28;20109;-71
2021/05/07 11:42:41;;;;;;;12.60;5.57;;;;;;;;;;5031478;28;20025;-71
2021/05/07 11:45:12;;;;;;;12.18;6.07;;;;;;;;;;5021981;28;20036;-71
2021/05/07 11:47:39;;;;;;;14.63;5.70;;;;;;;;;;5027262;28;20017;-72
2021/05/07 11:50:07;;;;;;;26.15;6.90;;;;;;;;;;5029823;28;20029;-72
2021/05/07 11:52:33;;;;;;;16.13;7.88;;;;;;;;;;5031005;28;20045;-71
2021/05/07 11:55:00;;;;;;;14.18;7.70;;;;;;;;;;5029464;28;20029;-71
2021/05/07 11:57:29;;;;;;;14.52;7.93;;;;;;;;;;5026347;28;20446;-71
2021/05/07 11:59:55;;;;;;;17.85;8.05;;;;;;;;;;5030107;28;20021;-71
2021/05/07 12:02:24;;;;;;;13.00;7.25;;;;;;;;;;5029405;28;20113;-77
2021/05/07 12:04:51;;;;;;;13.70;6.82;;;;;;;;;;5014883;28;20171;-72
2021/05/07 12:07:33;;;;;;;20.20;7.97;;;;;;;;;;5030106;28;20048;-72
2021/05/07 12:10:00;;;;;;;11.90;7.27;;;;;;;;;;5029400;28;20021;-72
2021/05/07 12:12:28;;;;;;;23.33;7.03;;;;;;;;;;5023880;28;20759;-71
2021/05/07 12:15:10;;;;;;;14.00;6.57;;;;;;;;;;5029711;28;20430;-71
2021/05/07 12:17:47;;;;;;;16.33;7.03;;;;;;;;;;5028078;28;20040;-72
2021/05/07 12:20:17;;;;;;;10.60;7.05;;;;;;;;;;5026681;28;20028;-72
2021/05/07 12:22:43;;;;;;;17.10;6.57;;;;;;;;;;5025819;28;20029;-72
2021/05/07 12:25:26;;;;;;;10.75;6.72;;;;;;;;;;5024644;28;20054;-72
2021/05/07 12:27:53;;;;;;;10.63;6.75;;;;;;;;;;5024818;28;20056;-71
2021/05/07 12:30:20;;;;;;;12.35;7.53;;;;;;;;;;5028453;28;20587;-71
2021/05/07 12:32:57;;;;;;;12.02;6.57;;;;;;;;;;5029566;28;20045;-72
2021/05/07 12:35:35;;;;;;;10.98;6.57;;;;;;;;;;5029599;28;20050;-75
2021/05/07 12:38:02;;;;;;;16.05;7.30;;;;;;;;;;5035844;28;20083;-74
2021/05/07 12:40:28;;;;;;;20.02;7.00;;;;;;;;;;5022861;28;20099;-73
2021/05/07 12:42:54;;;;;;;15.10;6.85;;;;;;;;;;5035338;28;20025;-72
2021/05/07 12:45:20;;;;;;;11.88;6.20;;;;;;;;;;5025968;28;20037;-70
2021/05/07 12:47:46;;;;;;;11.32;5.93;;;;;;;;;;5018783;28;20029;-70
2021/05/07 12:50:12;;;;;;;10.65;5.88;;;;;;;;;;5028245;28;20104;-70
2021/05/07 12:52:38;;;;;;;12.23;6.32;;;;;;;;;;5028498;28;20383;-70
2021/05/07 12:55:05;;;;;;;16.65;5.80;;;;;;;;;;5020919;28;20075;-71
2021/05/07 12:57:31;;;;;;;12.77;5.32;;;;;;;;;;5023145;28;20018;-71
2021/05/07 12:59:57;;;;;;;15.00;5.93;;;;;;;;;;5026237;28;20132;-70
2021/05/07 13:02:23;;;;;;;10.45;5.47;;;;;;;;;;5033112;28;20022;-70
2021/05/07 13:04:51;;;;;;;29.05;7.15;;;;;;;;;;5025604;28;20112;-70
2021/05/07 13:07:17;;;;;;;12.80;5.32;;;;;;;;;;5030710;28;20017;-71
2021/05/07 13:09:43;;;;;;;10.35;4.47;;;;;;;;;;5032045;28;20022;-70
2021/05/07 13:12:09;;;;;;;17.40;4.70;;;;;;;;;;5019708;28;20030;-70
2021/05/07 13:14:35;;;;;;;9.38;5.20;;;;;;;;;;5025454;28;20030;-70
2021/05/07 13:17:04;;;;;;;10.43;5.05;;;;;;;;;;5035192;28;20045;-71
2021/05/07 13:19:30;;;;;;;8.88;5.00;;;;;;;;;;5031600;28;20021;-71
2021/05/07 13:21:56;;;;;;;10.35;4.13;;;;;;;;;;5034505;28;20040;-72
2021/05/07 13:24:27;;;;;;;7.43;4.30;;;;;;;;;;5032056;28;20411;-70
2021/05/07 13:26:53;;;;;;;9.20;4.45;;;;;;;;;;5033913;28;20017;-70
2021/05/07 13:29:21;;;;;;;8.95;4.10;;;;;;;;;;5029415;28;20032;-70
2021/05/07 13:31:49;;;;;;;5.63;4.07;;;;;;;;;;5033197;28;20056;-71
2021/05/07 13:34:16;;;;;;;21.27;4.53;;;;;;;;;;5034396;28;20073;-71
2021/05/07 13:36:42;;;;;;;6.55;3.90;;;;;;;;;;5033274;28;20442;-70
2021/05/07 13:39:08;;;;;;;8.95;4.30;;;;;;;;;;5033836;28;20079;-70
2021/05/07 13:41:36;;;;;;;9.25;4.10;;;;;;;;;;5034350;28;20022;-72
2021/05/07 13:44:02;;;;;;;8.32;3.95;;;;;;;;;;5026394;28;20069;-72
2021/05/07 13:46:28;;;;;;;8.35;3.97;;;;;;;;;;5017353;28;20033;-70
2021/05/07 13:48:54;;;;;;;5.20;3.60;;;;;;;;;;5031369;28;20063;-71
2021/05/07 13:51:20;;;;;;;11.20;4.00;;;;;;;;;;5034171;28;20083;-70
2021/05/07 13:53:46;;;;;;;7.35;3.45;;;;;;;;;;5031877;28;20021;-71
2021/05/07 13:56:12;;;;;;;8.55;3.88;;;;;;;;;;5032175;28;20075;-71
2021/05/07 13:58:38;;;;;;;10.15;3.67;;;;;;;;;;5028777;28;20049;-71
2021/05/07 14:01:04;;;;;;;6.43;3.35;;;;;;;;;;5024681;28;20022;-71
2021/05/07 14:03:30;;;;;;;8.32;3.70;;;;;;;;;;5032038;28;20050;-71
2021/05/07 14:05:56;;;;;;;6.28;3.38;;;;;;;;;;5020976;28;20057;-71
2021/05/07 14:08:22;;;;;;;7.90;3.42;;;;;;;;;;5030380;28;20479;-71
2021/05/07 14:10:49;;;;;;;7.05;3.28;;;;;;;;;;5026401;28;20435;-74
2021/05/07 14:13:15;;;;;;;14.55;3.55;;;;;;;;;;5031652;28;20025;-71
2021/05/07 14:15:41;;;;;;;10.23;3.05;;;;;;;;;;5034281;28;20036;-70
2021/05/07 14:18:07;;;;;;;4.95;2.80;;;;;;;;;;5031640;28;20026;-70
2021/05/07 14:20:33;;;;;;;7.43;2.80;;;;;;;;;;5031918;28;20052;-71
2021/05/07 14:22:59;;;;;;;9.80;2.83;;;;;;;;;;5034019;28;20040;-70
2021/05/07 14:25:28;;;;;;;5.30;2.30;;;;;;;;;;5031653;28;20022;-70
2021/05/07 14:27:54;;;;;;;3.63;2.30;;;;;;;;;;5042918;28;20057;-71
2021/05/07 14:30:20;;;;;;;5.55;2.35;;;;;;;;;;5057532;28;20065;-73
2021/05/07 14:32:47;;;;;;;2.95;2.08;;;;;;;;;;5053433;28;20044;-70
2021/05/07 14:35:13;;;;;;;6.82;2.10;;;;;;;;;;5040181;28;20040;-71
2021/05/07 14:37:39;;;;;;;5.63;2.10;;;;;;;;;;5037627;28;20043;-70
2021/05/07 14:40:06;;;;;;;2.95;2.00;;;;;;;;;;5026889;28;20085;-71
2021/05/07 14:42:32;;;;;;;3.63;1.95;;;;;;;;;;5043349;28;20048;-74